Bear Lake, Minnesota
Current Conditions -  °F | °C
As of 6:14 AM on Thursday 29 Jan 2015 (Local Time) from KCQM Reporting Station
Overcast Overcast  
Wind Chill:   Ceiling: 1000
Heat Index: 21°   Visibility: 10mi
Dew Point: 19°   Wind: 12mph
Humidity: 93%   Direction: 320°NW
Pressure: 30.02"   Gusts: 21mph
Location:  47.8142°N, 92.9861°W
Report Text: KCQM 291214Z AUTO 32010G18KT 10SM OVC010 M06/M07 A3002 RMK AO2
Loading
Personal Weather Stations






























Interactive Weather Map New forecast layout! Learn more

10-Day Weather Forecast

Advertisements
Track Severe Weather on mobile